Time;durP1;ratioP1;P1;durP2;ratioP2;P2;SDS_P1;SDS_P2;PMS_P1;PMS_P2;Temp;Humidity;BMP_temperature;BMP_pressure;BME280_temperature;BME280_humidity;BME280_pressure;Samples;Min_cycle;Max_cycle;Signal;HPM_P1;HPM_P2
2022/07/29 00:02:31;;;;;;;3.92;2.52;;;;;;;18.86;57.09;100756.02;1734179;82;21008;-68
2022/07/29 00:05:02;;;;;;;4.90;2.55;;;;;;;18.83;57.30;100747.30;1738014;82;21055;-67
2022/07/29 00:07:32;;;;;;;3.27;2.25;;;;;;;18.81;57.31;100754.48;1732585;82;21044;-69
2022/07/29 00:10:05;;;;;;;6.72;2.60;;;;;;;18.75;57.23;100752.68;1735237;82;21087;-68
2022/07/29 00:12:35;;;;;;;5.35;2.90;;;;;;;18.71;57.34;100753.41;1735155;82;21119;-68
2022/07/29 00:15:08;;;;;;;4.78;2.80;;;;;;;18.68;57.40;100748.64;1737803;82;21051;-67
2022/07/29 00:17:39;;;;;;;8.08;2.30;;;;;;;18.70;57.42;100751.17;1736261;82;21054;-67
2022/07/29 00:20:10;;;;;;;4.83;2.25;;;;;;;18.71;57.39;100756.19;1730713;82;21145;-67
2022/07/29 00:22:41;;;;;;;4.20;2.37;;;;;;;18.66;57.41;100753.59;1674165;85;21111;-68
2022/07/29 00:25:13;;;;;;;4.75;2.50;;;;;;;18.63;57.54;100749.91;1672707;85;21352;-67
2022/07/29 00:27:45;;;;;;;3.95;2.33;;;;;;;18.61;57.66;100752.09;1686712;85;21043;-68
2022/07/29 00:30:15;;;;;;;6.12;2.30;;;;;;;18.62;57.84;100748.22;1670840;85;21475;-69
2022/07/29 00:32:44;;;;;;;6.12;2.45;;;;;;;18.61;58.05;100742.37;1676962;85;21139;-68
2022/07/29 00:38:02;;;;;;;7.05;2.90;;;;;;;18.54;58.48;100743.55;1673024;85;21507;-67
2022/07/29 00:40:33;;;;;;;4.67;2.62;;;;;;;18.51;58.59;100744.88;1704055;82;21048;-67
2022/07/29 00:43:03;;;;;;;4.62;2.47;;;;;;;18.53;58.77;100739.93;1735280;82;21083;-65
2022/07/29 00:45:34;;;;;;;4.40;2.60;;;;;;;18.52;58.88;100741.02;1694537;84;21075;-69
2022/07/29 00:48:04;;;;;;;5.85;2.52;;;;;;;18.48;59.11;100749.53;1703766;84;21049;-67
2022/07/29 00:50:36;;;;;;;4.67;2.98;;;;;;;18.45;59.22;100747.78;1735162;82;21444;-69
2022/07/29 00:53:07;;;;;;;4.15;2.45;;;;;;;18.45;59.11;100749.16;1729967;82;21123;-68
2022/07/29 00:55:37;;;;;;;6.78;2.55;;;;;;;18.40;59.06;100744.34;1716953;83;21517;-68
2022/07/29 00:58:07;;;;;;;4.03;2.72;;;;;;;18.36;59.15;100748.68;1717037;83;21006;-67
2022/07/29 01:00:36;;;;;;;3.72;2.52;;;;;;;18.35;59.25;100740.05;1715838;82;21037;-68
2022/07/29 01:03:07;;;;;;;5.08;2.77;;;;;;;18.34;59.17;100742.52;1715875;83;21446;-68
2022/07/29 01:05:37;;;;;;;5.72;2.77;;;;;;;18.30;59.19;100737.16;1704342;83;21099;-69
2022/07/29 01:08:11;;;;;;;4.15;2.40;;;;;;;18.26;59.55;100732.63;1715300;83;21530;-67
2022/07/29 01:10:41;;;;;;;3.65;2.47;;;;;;;18.24;59.64;100731.19;1710829;83;21092;-68
2022/07/29 01:13:11;;;;;;;4.22;2.37;;;;;;;18.24;59.40;100726.48;1715745;83;21069;-69
2022/07/29 01:15:47;;;;;;;6.30;2.60;;;;;;;18.19;59.34;100733.80;1705444;83;21111;-68
2022/07/29 01:18:32;;;;;;;7.00;2.77;;;;;;;18.13;59.52;100736.98;1717117;83;21014;-68
2022/07/29 01:21:53;;;;;;;7.05;2.98;;;;;;;18.09;59.65;100728.84;1716152;83;21068;-66
2022/07/29 01:24:44;;;;;;;6.97;2.85;;;;;;;18.06;59.73;100735.72;1715748;83;21015;-66
2022/07/29 01:27:23;;;;;;;5.50;2.47;;;;;;;18.01;59.78;100737.52;1716306;83;21043;-68
2022/07/29 01:29:58;;;;;;;5.08;2.90;;;;;;;17.98;59.89;100734.67;1712815;83;21461;-67
2022/07/29 01:32:31;;;;;;;5.30;3.02;;;;;;;17.98;60.12;100733.29;1715779;83;21041;-68
2022/07/29 01:35:19;;;;;;;7.15;2.98;;;;;;;17.97;60.20;100727.98;1715974;83;21472;-68
2022/07/29 01:38:00;;;;;;;5.20;2.80;;;;;;;17.99;60.16;100734.13;1716416;82;21127;-68
2022/07/29 01:40:53;;;;;;;5.45;2.83;;;;;;;17.98;60.18;100737.45;1715855;83;21073;-67
2022/07/29 01:43:34;;;;;;;5.28;2.90;;;;;;;17.96;60.27;100739.61;1715192;83;21096;-68
2022/07/29 01:46:06;;;;;;;4.85;2.80;;;;;;;17.96;60.33;100736.84;1706127;83;21048;-68
2022/07/29 01:48:49;;;;;;;4.83;2.60;;;;;;;17.93;60.35;100742.86;1715778;83;21535;-67
2022/07/29 01:51:26;;;;;;;5.72;2.95;;;;;;;17.88;60.46;100738.58;1715080;83;21068;-68
2022/07/29 01:54:19;;;;;;;6.53;3.00;;;;;;;17.86;60.51;100732.96;1723338;81;21040;-67
2022/07/29 01:56:51;;;;;;;4.37;2.92;;;;;;;17.87;60.63;100735.50;1712140;83;21812;-68
2022/07/29 01:59:20;;;;;;;5.58;3.10;;;;;;;17.85;60.79;100733.50;1698751;83;21071;-67
2022/07/29 02:01:50;;;;;;;5.97;3.33;;;;;;;17.82;61.04;100736.75;1726072;83;21085;-69
2022/07/29 02:04:23;;;;;;;6.25;3.00;;;;;;;17.82;61.08;100739.52;1700608;83;21444;-69
2022/07/29 02:06:55;;;;;;;5.03;3.37;;;;;;;17.80;61.06;100743.07;1728042;83;21036;-67
2022/07/29 02:09:27;;;;;;;6.80;3.05;;;;;;;17.78;61.05;100745.78;1718830;83;21012;-68
2022/07/29 02:11:57;;;;;;;8.63;3.30;;;;;;;17.77;60.98;100741.31;1723950;83;21047;-67
2022/07/29 02:14:32;;;;;;;5.47;3.00;;;;;;;17.74;60.84;100742.64;1694170;83;21088;-66
2022/07/29 02:17:03;;;;;;;6.17;3.40;;;;;;;17.74;60.98;100748.18;1718468;83;21051;-68
2022/07/29 02:19:33;;;;;;;5.15;3.20;;;;;;;17.74;61.01;100748.18;1721695;82;21045;-67
2022/07/29 02:22:04;;;;;;;5.28;3.05;;;;;;;17.76;60.98;100750.17;1731662;83;21076;-68
2022/07/29 02:24:36;;;;;;;5.53;2.77;;;;;;;17.77;60.94;100746.31;1721685;83;21059;-67
2022/07/29 02:27:08;;;;;;;4.10;3.08;;;;;;;17.71;60.91;100747.27;1724649;83;21031;-67
2022/07/29 02:29:39;;;;;;;6.50;3.02;;;;;;;17.69;61.05;100748.05;1719647;83;21056;-67
2022/07/29 02:32:09;;;;;;;8.03;3.10;;;;;;;17.67;61.00;100748.28;1724127;83;21545;-67
2022/07/29 02:34:39;;;;;;;20.17;8.53;;;;;;;17.64;61.09;100749.26;1724369;83;20995;-68
2022/07/29 02:37:10;;;;;;;8.60;3.90;;;;;;;17.64;61.30;100753.42;1721006;83;21055;-68
2022/07/29 02:39:42;;;;;;;6.87;3.02;;;;;;;17.62;61.48;100751.42;1718169;83;21478;-69
2022/07/29 02:42:16;;;;;;;6.25;3.20;;;;;;;17.63;61.68;100751.72;1712996;83;21027;-67
2022/07/29 02:44:47;;;;;;;7.37;3.05;;;;;;;17.67;61.63;100743.28;1724857;83;21027;-66
2022/07/29 02:47:44;;;;;;;4.55;2.77;;;;;;;17.65;61.50;100746.80;1713093;83;21055;-69
2022/07/29 02:50:25;;;;;;;5.15;2.80;;;;;;;17.61;61.44;100746.95;1726266;83;21083;-68
2022/07/29 02:53:03;;;;;;;4.53;2.83;;;;;;;17.57;61.50;100759.59;1725907;82;21425;-69
2022/07/29 02:55:39;;;;;;;4.78;2.80;;;;;;;17.55;61.50;100756.18;1726588;83;21024;-68
2022/07/29 02:58:31;;;;;;;6.35;2.90;;;;;;;17.57;61.45;100756.28;1730875;83;21059;-67
2022/07/29 03:01:05;;;;;;;5.28;2.98;;;;;;;17.60;61.39;100749.42;1724847;83;21165;-68
2022/07/29 03:03:39;;;;;;;6.17;2.45;;;;;;;17.59;61.45;100754.66;1725313;83;21007;-67
2022/07/29 03:06:08;;;;;;;5.53;2.80;;;;;;;17.55;61.64;100754.25;1727642;83;21030;-68
2022/07/29 03:08:39;;;;;;;7.60;3.02;;;;;;;17.54;61.71;100758.64;1720514;83;21060;-69
2022/07/29 03:11:10;;;;;;;7.75;2.90;;;;;;;17.55;61.68;100763.11;1694115;83;21106;-67
2022/07/29 03:13:41;;;;;;;6.12;3.30;;;;;;;17.54;61.72;100769.73;1726726;83;21110;-68
2022/07/29 03:16:12;;;;;;;7.70;3.30;;;;;;;17.52;62.06;100772.73;1726393;83;21485;-67
2022/07/29 03:18:44;;;;;;;5.72;2.60;;;;;;;17.51;62.20;100768.81;1723130;83;21114;-67
2022/07/29 03:21:14;;;;;;;7.20;2.98;;;;;;;17.51;62.14;100766.89;1731839;83;21023;-69
2022/07/29 03:23:47;;;;;;;4.95;2.60;;;;;;;17.53;62.20;100766.66;1726560;83;21048;-69
2022/07/29 03:26:17;;;;;;;6.55;2.65;;;;;;;17.59;62.12;100764.36;1723639;83;21116;-68
2022/07/29 03:28:46;;;;;;;6.78;3.20;;;;;;;17.61;62.13;100760.27;1729924;83;21455;-68
2022/07/29 03:31:17;;;;;;;9.13;2.90;;;;;;;17.63;62.37;100760.88;1723624;83;21452;-66
2022/07/29 03:33:48;;;;;;;4.95;2.90;;;;;;;17.67;62.68;100759.91;1730290;83;21428;-69
2022/07/29 03:36:19;;;;;;;6.87;3.45;;;;;;;17.70;62.84;100761.66;1720996;83;21394;-67
2022/07/29 03:38:49;;;;;;;6.25;2.98;;;;;;;17.77;62.67;100761.56;1728539;83;21123;-67
2022/07/29 03:41:19;;;;;;;6.70;3.50;;;;;;;17.80;62.80;100767.17;1728111;82;21051;-68
2022/07/29 03:43:53;;;;;;;9.03;3.60;;;;;;;17.79;62.84;100767.72;1657149;86;21038;-67
2022/07/29 03:46:23;;;;;;;6.42;3.40;;;;;;;17.82;62.91;100763.63;1647662;86;21568;-68
2022/07/29 03:48:57;;;;;;;8.30;3.27;;;;;;;17.86;63.07;100769.84;1663098;85;21041;-67
2022/07/29 03:51:27;;;;;;;9.15;3.40;;;;;;;17.89;63.06;100768.53;1655186;86;21109;-65
2022/07/29 03:54:03;;;;;;;5.40;3.25;;;;;;;17.90;63.21;100772.98;1658954;85;21524;-67
2022/07/29 03:56:38;;;;;;;5.53;2.80;;;;;;;17.93;63.34;100771.12;1627194;88;21036;-67
2022/07/29 03:59:07;;;;;;;6.92;3.15;;;;;;;17.98;63.30;100766.56;1663069;86;21010;-68
2022/07/29 04:01:38;;;;;;;7.70;3.30;;;;;;;18.04;63.33;100771.70;1659635;86;21096;-66
2022/07/29 04:04:10;;;;;;;6.62;3.50;;;;;;;18.10;63.21;100774.91;1662041;86;20994;-68
2022/07/29 04:06:43;;;;;;;5.95;3.58;;;;;;;18.17;63.10;100766.48;1663060;86;21038;-69
2022/07/29 04:09:15;;;;;;;7.20;3.17;;;;;;;18.24;62.91;100767.25;1706273;83;21094;-67
2022/07/29 04:11:44;;;;;;;8.45;3.70;;;;;;;18.31;62.51;100772.98;1726646;83;21110;-67
2022/07/29 04:14:18;;;;;;;7.62;3.80;;;;;;;18.42;61.76;100765.75;1723880;83;21030;-69
2022/07/29 04:16:50;;;;;;;4.80;3.12;;;;;;;18.54;61.39;100764.37;1724450;83;21035;-68
2022/07/29 04:19:20;;;;;;;6.33;3.35;;;;;;;18.63;61.46;100766.56;1717340;83;21050;-68
2022/07/29 04:21:49;;;;;;;6.97;4.00;;;;;;;18.69;61.51;100768.38;1727142;83;21101;-67
2022/07/29 04:24:19;;;;;;;13.95;4.25;;;;;;;18.77;61.08;100766.31;1727517;83;21054;-68
2022/07/29 04:26:51;;;;;;;14.70;3.85;;;;;;;18.85;60.28;100767.33;1619786;87;21370;-68
2022/07/29 04:29:21;;;;;;;9.60;4.00;;;;;;;18.95;59.59;100773.15;1610763;87;21106;-67
2022/07/29 04:31:50;;;;;;;8.20;3.12;;;;;;;19.05;59.23;100768.36;1622116;87;21084;-68
2022/07/29 04:34:20;;;;;;;6.67;3.10;;;;;;;19.15;58.72;100765.80;1619200;87;21171;-68
2022/07/29 04:36:49;;;;;;;9.18;3.75;;;;;;;19.25;58.11;100766.86;1623725;87;21191;-68
2022/07/29 04:39:21;;;;;;;7.20;3.35;;;;;;;19.36;58.30;100767.06;1617924;87;21124;-68
2022/07/29 04:41:53;;;;;;;10.45;3.90;;;;;;;19.43;58.39;100764.98;1585855;89;21526;-67
2022/07/29 04:44:25;;;;;;;5.08;2.85;;;;;;;19.53;58.39;100766.64;1595993;84;21087;-66
2022/07/29 04:46:57;;;;;;;9.15;3.47;;;;;;;19.59;57.27;100758.16;1685635;85;21039;-67
2022/07/29 04:49:28;;;;;;;6.47;3.10;;;;;;;19.71;56.41;100761.42;1689264;85;21042;-67
2022/07/29 04:51:57;;;;;;;4.08;2.08;;;;;;;19.82;54.60;100759.98;1688896;84;21075;-68
2022/07/29 04:54:27;;;;;;;3.77;2.10;;;;;;;19.96;53.55;100760.50;1691566;85;21108;-68
2022/07/29 04:56:58;;;;;;;4.67;1.77;;;;;;;20.08;52.74;100763.22;1687784;83;21612;-67
2022/07/29 04:59:28;;;;;;;6.87;2.30;;;;;;;20.21;52.17;100767.09;1731960;81;21078;-67
2022/07/29 05:01:58;;;;;;;5.10;1.80;;;;;;;20.35;51.08;100765.66;1735482;81;21042;-67
2022/07/29 05:04:28;;;;;;;3.37;1.98;;;;;;;20.51;50.91;100765.38;1750433;81;21027;-67
2022/07/29 05:06:59;;;;;;;8.45;2.10;;;;;;;20.66;50.15;100766.16;1751009;81;20987;-67
2022/07/29 05:09:32;;;;;;;6.47;2.00;;;;;;;20.78;48.91;100764.96;1749924;81;21026;-67
2022/07/29 05:12:03;;;;;;;6.80;1.90;;;;;;;20.93;48.26;100764.92;1734469;81;21079;-67
2022/07/29 05:14:33;;;;;;;6.00;1.90;;;;;;;21.09;47.76;100753.72;1749539;81;21023;-67
2022/07/29 05:17:05;;;;;;;3.20;1.90;;;;;;;21.28;47.37;100754.82;1734586;81;21463;-67
2022/07/29 05:19:36;;;;;;;7.15;1.72;;;;;;;21.46;46.76;100755.36;1732311;81;21084;-67
2022/07/29 05:22:09;;;;;;;6.58;2.12;;;;;;;21.65;46.08;100755.84;1640435;86;21567;-67
2022/07/29 05:24:39;;;;;;;4.40;1.70;;;;;;;21.90;46.02;100768.38;1640672;86;21069;-68
2022/07/29 05:27:10;;;;;;;7.08;2.35;;;;;;;22.17;45.16;100760.03;1650096;86;21083;-66
2022/07/29 05:29:41;;;;;;;6.20;2.08;;;;;;;22.49;44.59;100762.81;1639409;87;21102;-67
2022/07/29 05:32:14;;;;;;;8.40;1.60;;;;;;;22.77;43.72;100761.08;1651118;86;21082;-67
2022/07/29 05:34:45;;;;;;;5.35;1.95;;;;;;;23.05;43.29;100764.06;1640792;87;21051;-68
2022/07/29 05:37:17;;;;;;;4.05;1.67;;;;;;;23.35;42.46;100769.80;1639832;87;21162;-68
2022/07/29 05:39:47;;;;;;;5.87;1.77;;;;;;;23.65;41.83;100765.48;1641097;87;21142;-67
2022/07/29 05:42:20;;;;;;;4.08;1.70;;;;;;;23.90;41.28;100772.54;1639207;86;21118;-70
2022/07/29 05:44:50;;;;;;;6.55;1.52;;;;;;;24.21;40.38;100765.61;1639472;87;21152;-69
2022/07/29 05:47:21;;;;;;;6.67;1.77;;;;;;;24.46;39.43;100767.03;1720029;81;21514;-73
2022/07/29 05:49:51;;;;;;;4.25;1.90;;;;;;;24.66;39.09;100764.77;1750657;81;21299;-68
2022/07/29 05:52:22;;;;;;;6.75;2.05;;;;;;;24.84;38.15;100768.97;1732705;81;21101;-69
2022/07/29 05:54:52;;;;;;;7.22;1.55;;;;;;;25.00;37.78;100769.80;1720984;81;21090;-69
2022/07/29 05:57:23;;;;;;;7.25;1.65;;;;;;;25.16;37.52;100769.47;1722857;82;21092;-68
2022/07/29 05:59:52;;;;;;;5.83;1.60;;;;;;;25.39;37.04;100766.60;1728733;82;21076;-70
2022/07/29 06:02:25;;;;;;;9.38;1.80;;;;;;;25.64;37.05;100763.39;1734217;82;21046;-69
2022/07/29 06:04:57;;;;;;;6.22;1.75;;;;;;;25.90;36.39;100764.95;1728599;82;21459;-67
2022/07/29 06:07:28;;;;;;;7.47;2.12;;;;;;;26.11;36.06;100766.52;1723726;82;21451;-69
2022/07/29 06:10:00;;;;;;;10.68;3.30;;;;;;;26.33;35.78;100766.66;1744827;82;20983;-68
2022/07/29 06:12:30;;;;;;;10.38;2.15;;;;;;;26.51;35.03;100768.73;1736351;82;21078;-68
2022/07/29 06:15:00;;;;;;;9.40;2.27;;;;;;;26.60;34.90;100768.38;1739016;82;21078;-69
2022/07/29 06:17:32;;;;;;;6.92;1.80;;;;;;;26.69;34.99;100768.03;1745572;82;21505;-68
2022/07/29 06:20:03;;;;;;;6.28;2.17;;;;;;;26.89;34.29;100760.52;1747261;82;21010;-69
2022/07/29 06:22:35;;;;;;;10.03;2.10;;;;;;;27.14;33.90;100762.51;1651510;86;21152;-69
2022/07/29 06:25:05;;;;;;;9.25;2.20;;;;;;;27.29;33.21;100764.30;1639299;86;21070;-68
2022/07/29 06:27:36;;;;;;;8.40;1.80;;;;;;;27.42;32.37;100764.17;1647941;86;21102;-69
2022/07/29 06:30:08;;;;;;;12.33;3.12;;;;;;;27.46;32.90;100773.11;1585491;88;21597;-69
2022/07/29 06:32:40;;;;;;;6.55;2.22;;;;;;;27.61;32.71;100765.06;1596430;88;21092;-67
2022/07/29 06:35:11;;;;;;;6.53;2.17;;;;;;;27.84;31.82;100765.31;1584967;88;21124;-68
2022/07/29 06:37:43;;;;;;;12.20;2.40;;;;;;;28.04;31.24;100767.28;1561634;91;21229;-68
2022/07/29 06:43:06;;;;;;;5.30;1.55;;;;;;;28.26;30.73;100767.25;1643437;86;21523;-69
2022/07/29 06:45:40;;;;;;;12.07;2.50;;;;;;;28.45;30.23;100771.44;1660782;86;21112;-69
2022/07/29 06:48:11;;;;;;;4.85;1.70;;;;;;;28.55;29.34;100755.18;1653584;85;21135;-68
2022/07/29 06:50:41;;;;;;;6.65;1.77;;;;;;;28.64;29.81;100770.27;1687971;85;21044;-68
2022/07/29 06:53:11;;;;;;;3.00;1.50;;;;;;;28.77;29.41;100769.20;1666033;85;21109;-70
2022/07/29 06:55:42;;;;;;;2.75;1.27;;;;;;;28.93;29.10;100764.98;1687485;85;21096;-69
2022/07/29 06:58:17;;;;;;;4.78;1.40;;;;;;;29.10;28.87;100762.37;1707195;82;21027;-67
2022/07/29 07:00:48;;;;;;;4.35;1.27;;;;;;;29.36;28.59;100761.30;1699952;83;21648;-70
2022/07/29 07:03:19;;;;;;;6.60;1.87;;;;;;;29.57;28.02;100759.74;1728067;83;21031;-68
2022/07/29 07:05:50;;;;;;;2.95;1.40;;;;;;;29.71;27.54;100755.48;1742258;82;21052;-71
2022/07/29 07:08:23;;;;;;;6.72;2.00;;;;;;;29.84;27.75;100756.02;1684209;85;21071;-70
2022/07/29 07:10:54;;;;;;;11.38;3.20;;;;;;;29.88;27.41;100749.99;1683756;85;21077;-69
2022/07/29 07:13:25;;;;;;;4.40;2.12;;;;;;;29.95;27.29;100753.25;1676484;85;21121;-70
2022/07/29 07:15:57;;;;;;;4.75;2.08;;;;;;;30.00;27.32;100751.45;1679941;85;21131;-69
2022/07/29 07:18:28;;;;;;;8.63;1.67;;;;;;;30.06;26.83;100755.86;1679915;85;21074;-68
2022/07/29 07:21:00;;;;;;;3.17;2.02;;;;;;;30.14;26.96;100756.51;1653412;86;21250;-70
2022/07/29 07:23:30;;;;;;;7.53;1.60;;;;;;;30.23;26.92;100758.25;1643215;86;21083;-69
2022/07/29 07:26:01;;;;;;;3.02;2.00;;;;;;;30.28;26.98;100769.43;1668253;83;21038;-70
2022/07/29 07:28:32;;;;;;;4.55;1.45;;;;;;;30.39;26.96;100774.25;1692926;83;21159;-68
2022/07/29 07:31:04;;;;;;;4.78;1.77;;;;;;;30.51;26.69;100777.91;1702229;83;21170;-72
2022/07/29 07:33:36;;;;;;;4.47;1.87;;;;;;;30.53;26.60;100776.43;1701015;83;21104;-70
2022/07/29 07:36:07;;;;;;;4.40;2.20;;;;;;;30.51;26.93;100768.84;1705924;83;21192;-71
2022/07/29 07:38:39;;;;;;;4.87;2.20;;;;;;;30.61;26.71;100776.88;1708244;83;21547;-68
2022/07/29 07:41:10;;;;;;;8.55;3.40;;;;;;;30.68;26.64;100768.18;1742792;82;21016;-69
2022/07/29 07:43:40;;;;;;;7.25;3.10;;;;;;;30.80;26.64;100766.17;1737784;82;21118;-68
2022/07/29 07:46:10;;;;;;;5.17;2.58;;;;;;;31.04;26.47;100775.11;1741806;82;21078;-69
2022/07/29 07:48:41;;;;;;;7.85;3.15;;;;;;;31.16;26.01;100768.86;1744008;82;21489;-70
2022/07/29 07:51:11;;;;;;;7.08;2.75;;;;;;;31.07;26.31;100773.05;1731422;82;21162;-68
2022/07/29 07:53:40;;;;;;;4.67;1.98;;;;;;;31.07;26.30;100774.46;1742328;82;21078;-68
2022/07/29 07:56:12;;;;;;;4.67;2.22;;;;;;;31.12;26.61;100773.48;1724092;82;21491;-70
2022/07/29 07:58:42;;;;;;;4.50;1.80;;;;;;;31.14;26.37;100776.82;1720948;82;21102;-70
2022/07/29 08:01:11;;;;;;;5.58;2.10;;;;;;;31.07;26.60;100773.63;1702154;83;21046;-69
2022/07/29 08:03:41;;;;;;;6.20;2.10;;;;;;;31.22;26.57;100781.75;1702381;84;21099;-68
2022/07/29 08:06:13;;;;;;;4.17;1.90;;;;;;;31.36;26.53;100779.63;1692972;84;21082;-69
2022/07/29 08:08:43;;;;;;;4.92;2.10;;;;;;;31.55;26.69;100783.61;1698045;83;21529;-68
2022/07/29 08:11:13;;;;;;;4.53;1.90;;;;;;;31.58;26.78;100785.78;1701109;83;21074;-68
2022/07/29 08:13:43;;;;;;;5.10;1.95;;;;;;;31.50;26.75;100776.09;1701050;83;21065;-69
2022/07/29 08:16:15;;;;;;;4.75;1.92;;;;;;;31.50;26.79;100780.34;1699336;84;21072;-67
2022/07/29 08:18:45;;;;;;;9.58;2.20;;;;;;;31.56;26.95;100785.27;1703867;81;21067;-67
2022/07/29 08:21:16;;;;;;;6.90;2.00;;;;;;;31.64;26.95;100785.87;1733928;82;21012;-67
2022/07/29 08:23:52;;;;;;;6.03;2.00;;;;;;;31.78;26.33;100782.35;1740847;82;21020;-68
2022/07/29 08:26:25;;;;;;;6.83;2.45;;;;;;;31.82;26.07;100779.11;1731619;82;21419;-67
2022/07/29 08:28:54;;;;;;;6.42;2.05;;;;;;;31.81;26.41;100780.86;1723060;82;21099;-69
2022/07/29 08:31:26;;;;;;;4.65;2.17;;;;;;;31.82;26.45;100771.19;1731475;82;20996;-68
2022/07/29 08:33:59;;;;;;;6.12;2.27;;;;;;;31.82;25.97;100770.60;1731758;82;21468;-67
2022/07/29 08:36:28;;;;;;;5.17;1.85;;;;;;;31.60;26.20;100772.11;1732487;82;21114;-70
2022/07/29 08:39:00;;;;;;;4.67;1.90;;;;;;;31.54;26.45;100770.60;1727954;82;21012;-67
2022/07/29 08:41:31;;;;;;;8.00;2.42;;;;;;;31.69;25.99;100769.30;1744775;82;21527;-65
2022/07/29 08:44:02;;;;;;;6.28;2.60;;;;;;;31.63;25.79;100774.88;1729853;82;21019;-66
2022/07/29 08:46:35;;;;;;;5.50;2.45;;;;;;;31.55;25.96;100768.02;1723927;82;21084;-68
2022/07/29 08:49:09;;;;;;;12.13;3.12;;;;;;;31.52;26.45;100768.68;1719427;82;21027;-69
2022/07/29 08:51:40;;;;;;;5.83;2.50;;;;;;;31.50;26.44;100767.59;1703799;82;21526;-67
2022/07/29 08:54:12;;;;;;;3.45;1.95;;;;;;;31.45;26.96;100771.16;1742624;82;21098;-69
2022/07/29 08:56:43;;;;;;;9.93;2.12;;;;;;;31.38;26.49;100765.14;1721475;82;21525;-68
2022/07/29 08:59:14;;;;;;;3.85;2.10;;;;;;;31.17;26.86;100765.70;1736496;82;20992;-69
2022/07/29 09:01:48;;;;;;;4.58;2.00;;;;;;;30.97;27.03;100768.25;1708221;82;21020;-68
2022/07/29 09:04:18;;;;;;;4.67;2.12;;;;;;;30.71;27.40;100765.28;1725083;82;21052;-68
2022/07/29 09:06:51;;;;;;;3.37;1.87;;;;;;;30.45;27.74;100768.72;1716731;82;21059;-67
2022/07/29 09:09:22;;;;;;;5.58;2.22;;;;;;;30.29;27.99;100770.27;1725015;82;21068;-68
2022/07/29 09:11:53;;;;;;;9.35;3.22;;;;;;;30.27;28.20;100759.86;1721213;82;21050;-67
2022/07/29 09:14:23;;;;;;;14.78;5.28;;;;;;;30.34;28.17;100762.23;1721723;82;21079;-66
2022/07/29 09:16:56;;;;;;;6.05;2.25;;;;;;;30.45;28.33;100765.89;1695902;83;21470;-66
2022/07/29 09:19:31;;;;;;;10.13;2.75;;;;;;;30.52;28.15;100763.44;1710472;83;21041;-69
2022/07/29 09:22:01;;;;;;;11.25;2.52;;;;;;;30.52;28.14;100763.44;1707467;83;21072;-67
2022/07/29 09:24:48;;;;;;;3.60;2.05;;;;;;;30.46;28.31;100763.31;1698475;83;21061;-69
2022/07/29 09:27:23;;;;;;;6.67;2.37;;;;;;;30.39;28.64;100767.18;1701090;83;21058;-70
2022/07/29 09:30:06;;;;;;;4.70;2.37;;;;;;;30.30;28.78;100763.45;1693146;83;21104;-69
2022/07/29 09:33:00;;;;;;;6.30;2.67;;;;;;;30.26;28.92;100767.50;1705078;83;21016;-66
2022/07/29 09:35:30;;;;;;;7.85;2.50;;;;;;;30.19;28.73;100764.28;1713040;82;21492;-68
2022/07/29 09:38:12;;;;;;;6.37;2.30;;;;;;;30.05;29.18;100749.37;1726298;82;21039;-68
2022/07/29 09:40:42;;;;;;;5.15;2.17;;;;;;;29.98;29.24;100758.84;1745679;82;21098;-69
2022/07/29 09:43:12;;;;;;;5.35;2.30;;;;;;;29.97;29.19;100764.23;1706136;82;21083;-68
2022/07/29 09:45:42;;;;;;;7.72;2.17;;;;;;;29.95;29.32;100760.31;1736403;82;21050;-68
2022/07/29 09:48:19;;;;;;;7.97;2.52;;;;;;;29.94;29.33;100760.05;1740634;82;21027;-68
2022/07/29 09:50:49;;;;;;;5.92;2.83;;;;;;;29.90;29.54;100761.81;1722454;82;21079;-66
2022/07/29 09:53:37;;;;;;;6.00;2.70;;;;;;;29.88;29.51;100751.41;1733754;82;21063;-66
2022/07/29 09:56:06;;;;;;;5.00;2.50;;;;;;;29.82;29.75;100763.98;1721592;82;21044;-67
2022/07/29 09:58:38;;;;;;;5.33;2.17;;;;;;;29.63;29.81;100759.05;1718481;83;21432;-65
2022/07/29 10:01:08;;;;;;;4.12;2.35;;;;;;;29.42;30.21;100755.81;1721491;83;21457;-67
2022/07/29 10:03:52;;;;;;;6.30;2.17;;;;;;;29.42;30.21;100755.81;1726729;83;21023;-66
2022/07/29 10:06:22;;;;;;;7.05;2.45;;;;;;;29.30;30.45;100754.94;1723958;83;21491;-66
2022/07/29 10:08:52;;;;;;;4.95;2.15;;;;;;;29.29;30.38;100753.26;1685152;84;21079;-66
2022/07/29 10:11:22;;;;;;;5.15;2.33;;;;;;;29.24;30.52;100749.09;1691172;84;21091;-65
2022/07/29 10:13:52;;;;;;;5.08;2.60;;;;;;;29.25;30.41;100749.94;1691432;84;21508;-65
2022/07/29 10:16:26;;;;;;;5.45;2.30;;;;;;;29.32;30.29;100744.16;1690945;84;21109;-65
2022/07/29 10:18:57;;;;;;;4.65;2.30;;;;;;;29.31;30.57;100747.30;1686792;84;21042;-64
2022/07/29 10:21:30;;;;;;;7.80;2.90;;;;;;;29.32;30.22;100739.92;1641065;86;21119;-65
2022/07/29 10:24:03;;;;;;;3.80;2.17;;;;;;;29.33;30.17;100726.07;1641657;86;21066;-66
2022/07/29 10:26:34;;;;;;;5.37;2.22;;;;;;;29.42;30.17;100728.98;1625625;86;21102;-65
2022/07/29 10:29:04;;;;;;;6.53;2.60;;;;;;;29.50;29.57;100728.27;1650786;86;21064;-65
2022/07/29 10:31:46;;;;;;;7.87;2.50;;;;;;;29.50;29.57;100728.27;1635079;86;21221;-65
2022/07/29 10:34:30;;;;;;;6.08;2.65;;;;;;;29.59;29.78;100724.95;1645543;86;21029;-65
2022/07/29 10:37:22;;;;;;;5.95;2.37;;;;;;;29.68;29.52;100727.88;1656568;86;21487;-64
2022/07/29 10:43:22;;;;;;;5.40;2.60;;;;;;;29.52;29.74;100731.62;1649049;86;21071;-63
2022/07/29 10:45:54;;;;;;;5.55;2.45;;;;;;;29.54;29.67;100722.83;1653193;86;21043;-62
2022/07/29 10:48:26;;;;;;;5.58;2.17;;;;;;;29.54;29.67;100722.83;1659731;86;21116;-64
2022/07/29 10:51:03;;;;;;;6.08;2.45;;;;;;;29.52;29.77;100716.66;1656554;86;21089;-64
2022/07/29 10:53:52;;;;;;;7.42;2.70;;;;;;;29.47;29.89;100718.19;1653298;86;21070;-65
2022/07/29 10:56:30;;;;;;;;;;;;;;;29.44;29.92;100720.23;1639076;86;21154;-64
2022/07/29 10:59:24;;;;;;;7.08;2.10;;;;;;;29.42;29.93;100722.50;1653233;86;20483;-66
2022/07/29 11:01:54;;;;;;;4.95;2.12;;;;;;;29.40;30.22;100717.17;1651555;86;21564;-65
2022/07/29 11:04:50;;;;;;;5.67;2.58;;;;;;;29.58;30.12;100713.98;1680647;83;21087;-66
2022/07/29 11:07:19;;;;;;;6.45;2.72;;;;;;;29.58;30.12;100713.98;1717381;83;21078;-65
2022/07/29 11:10:18;;;;;;;4.45;2.20;;;;;;;29.69;29.99;100716.83;1717433;83;21084;-65
2022/07/29 11:12:50;;;;;;;4.08;2.45;;;;;;;29.77;29.54;100706.19;1717455;83;21581;-65
2022/07/29 11:15:22;;;;;;;6.37;2.42;;;;;;;29.77;29.54;100706.19;1717403;83;21072;-64
2022/07/29 11:18:02;;;;;;;4.50;2.55;;;;;;;29.75;29.66;100707.66;1717663;83;21025;-66
2022/07/29 11:20:45;;;;;;;8.40;2.77;;;;;;;29.70;29.85;100702.97;1706195;83;21030;-64
2022/07/29 11:23:39;;;;;;;7.15;2.65;;;;;;;29.66;29.78;100707.58;1714728;83;21081;-63
2022/07/29 11:26:22;;;;;;;4.97;2.83;;;;;;;29.65;29.88;100707.32;1717131;83;21076;-64
2022/07/29 11:29:13;;;;;;;3.62;2.25;;;;;;;29.69;29.81;100705.53;1717480;83;21634;-63
2022/07/29 11:31:53;;;;;;;5.08;2.30;;;;;;;29.68;29.54;100703.86;1716487;83;21096;-66
2022/07/29 11:34:32;;;;;;;7.60;4.47;;;;;;;29.54;29.87;100703.89;1717508;83;21438;-64
2022/07/29 11:37:14;;;;;;;8.05;2.90;;;;;;;29.46;29.91;100700.98;1717431;83;21094;-65
2022/07/29 11:39:58;;;;;;;6.40;3.00;;;;;;;29.39;30.48;100702.80;1707149;83;21419;-64
2022/07/29 11:42:38;;;;;;;8.53;3.20;;;;;;;29.41;30.47;100699.66;1717433;83;21025;-65
2022/07/29 11:45:16;;;;;;;8.58;2.95;;;;;;;29.41;30.47;100699.66;1717583;83;21555;-64
2022/07/29 11:47:51;;;;;;;6.12;2.65;;;;;;;29.45;30.38;100694.50;1712443;83;21106;-64
2022/07/29 11:50:36;;;;;;;7.25;2.52;;;;;;;29.47;30.33;100695.59;1717424;83;21046;-63
2022/07/29 11:53:13;;;;;;;5.40;2.30;;;;;;;29.43;30.74;100686.92;1708080;83;21108;-65
2022/07/29 11:55:44;;;;;;;6.55;2.70;;;;;;;29.41;30.32;100684.97;1717225;83;21496;-63
2022/07/29 11:58:16;;;;;;;7.35;2.42;;;;;;;29.31;30.63;100683.78;1707213;83;21116;-65
2022/07/29 12:00:47;;;;;;;6.53;2.80;;;;;;;29.31;30.63;100683.78;1685518;83;21043;-65
2022/07/29 12:03:26;;;;;;;7.53;3.20;;;;;;;29.28;30.73;100681.59;1715659;83;21477;-64